Time;durP1;ratioP1;P1;durP2;ratioP2;P2;SDS_P1;SDS_P2;PMS_P1;PMS_P2;Temp;Humidity;BMP_temperature;BMP_pressure;BME280_temperature;BME280_humidity;BME280_pressure;Samples;Min_cycle;Max_cycle;Signal;HPM_P1;HPM_P2
2023/01/05 00:01:02;;;;;;;;;;;21.50;38.00;;;;;;458160;256;1859;-44
2023/01/05 00:03:03;;;;;;;;;;;21.50;38.00;;;;;;465942;252;1584;-44
2023/01/05 00:05:04;;;;;;;;;;;21.50;38.00;;;;;;475952;249;1760;-45
2023/01/05 00:07:06;;;;;;;;;;;21.50;38.00;;;;;;458325;257;1810;-44
2023/01/05 00:09:07;;;;;;;;;;;21.50;38.00;;;;;;465957;252;1675;-45
2023/01/05 00:22:45;;;;;;;;;;;21.50;38.10;;;;;;465673;255;1726;-44
2023/01/05 00:24:46;;;;;;;;;;;21.50;38.10;;;;;;475829;249;1883;-44
2023/01/05 00:26:48;;;;;;;;;;;21.40;38.10;;;;;;458059;256;1767;-44
2023/01/05 00:28:49;;;;;;;;;;;21.50;38.10;;;;;;465756;252;2122;-45
2023/01/05 00:30:50;;;;;;;;;;;21.40;38.10;;;;;;475766;249;1883;-44
2023/01/05 00:32:52;;;;;;;;;;;21.40;38.10;;;;;;458088;256;1702;-44
2023/01/05 00:34:54;;;;;;;;;;;21.40;38.20;;;;;;465726;252;2205;-45
2023/01/05 00:36:55;;;;;;;;;;;21.40;38.20;;;;;;475763;249;2437;-44
2023/01/05 00:38:56;;;;;;;;;;;21.40;38.20;;;;;;458216;256;1813;-44
2023/01/05 00:40:57;;;;;;;;;;;21.40;38.10;;;;;;465760;252;1717;-44
2023/01/05 00:42:59;;;;;;;;;;;21.40;38.10;;;;;;475867;249;1705;-45
2023/01/05 00:45:00;;;;;;;;;;;21.40;38.10;;;;;;458190;256;1658;-44
2023/01/05 00:47:01;;;;;;;;;;;21.40;38.20;;;;;;465774;252;1740;-45
2023/01/05 00:49:03;;;;;;;;;;;21.40;38.20;;;;;;475737;249;2184;-44
2023/01/05 00:51:04;;;;;;;;;;;21.40;38.20;;;;;;458142;256;1831;-44
2023/01/05 00:53:05;;;;;;;;;;;21.30;38.20;;;;;;465728;252;2223;-44
2023/01/05 00:55:07;;;;;;;;;;;21.30;38.20;;;;;;475749;249;2228;-44
2023/01/05 00:57:08;;;;;;;;;;;21.40;38.30;;;;;;458089;256;1777;-44
2023/01/05 00:59:09;;;;;;;;;;;21.30;38.20;;;;;;465711;252;1962;-44
2023/01/05 01:01:11;;;;;;;;;;;21.30;38.20;;;;;;475573;249;1701;-44
2023/01/05 01:03:12;;;;;;;;;;;21.40;38.30;;;;;;458006;257;1996;-44
2023/01/05 01:05:13;;;;;;;;;;;21.40;38.20;;;;;;465678;252;2114;-44
2023/01/05 01:07:15;;;;;;;;;;;21.40;38.10;;;;;;475609;249;2149;-44
2023/01/05 01:09:16;;;;;;;;;;;21.40;38.10;;;;;;458123;256;2154;-44
2023/01/05 01:11:17;;;;;;;;;;;21.40;38.10;;;;;;465499;252;1942;-45
2023/01/05 01:13:18;;;;;;;;;;;21.40;38.20;;;;;;475755;249;1947;-45
2023/01/05 01:15:20;;;;;;;;;;;21.40;38.20;;;;;;458037;257;2209;-44
2023/01/05 01:17:21;;;;;;;;;;;21.30;38.20;;;;;;465730;252;1589;-44
2023/01/05 01:19:22;;;;;;;;;;;21.30;38.20;;;;;;475804;249;1677;-44
2023/01/05 01:21:24;;;;;;;;;;;21.30;38.30;;;;;;458061;256;1939;-45
2023/01/05 01:23:25;;;;;;;;;;;21.30;38.30;;;;;;475656;249;1718;-45
2023/01/05 01:25:26;;;;;;;;;;;21.30;38.20;;;;;;458135;256;1722;-45
2023/01/05 01:27:28;;;;;;;;;;;21.30;38.30;;;;;;465702;252;1829;-45
2023/01/05 01:29:29;;;;;;;;;;;21.30;38.30;;;;;;475745;249;1819;-44
2023/01/05 01:31:30;;;;;;;;;;;21.30;38.30;;;;;;458149;257;1743;-45
2023/01/05 01:33:32;;;;;;;;;;;21.30;38.30;;;;;;465655;252;2204;-45
2023/01/05 01:35:33;;;;;;;;;;;21.30;38.20;;;;;;475683;249;2193;-44
2023/01/05 01:37:34;;;;;;;;;;;21.30;38.30;;;;;;458064;256;1714;-44
2023/01/05 01:39:36;;;;;;;;;;;21.30;38.40;;;;;;465714;252;1982;-45
2023/01/05 01:41:37;;;;;;;;;;;21.30;38.30;;;;;;475738;249;2290;-44
2023/01/05 01:43:38;;;;;;;;;;;21.30;38.30;;;;;;458028;257;1908;-44
2023/01/05 01:45:40;;;;;;;;;;;21.30;38.40;;;;;;465734;252;1966;-45
2023/01/05 01:47:41;;;;;;;;;;;21.30;38.30;;;;;;475633;249;1840;-45
2023/01/05 01:49:42;;;;;;;;;;;21.30;38.30;;;;;;457973;257;1841;-45
2023/01/05 01:51:44;;;;;;;;;;;21.30;38.30;;;;;;465663;252;2098;-44
2023/01/05 01:53:45;;;;;;;;;;;21.30;38.20;;;;;;475542;249;1962;-45
2023/01/05 01:55:46;;;;;;;;;;;21.30;38.20;;;;;;457889;257;2206;-44
2023/01/05 01:57:48;;;;;;;;;;;21.30;38.20;;;;;;465596;252;1690;-44
2023/01/05 01:59:49;;;;;;;;;;;21.30;38.10;;;;;;475613;249;1945;-44
2023/01/05 02:01:51;;;;;;;;;;;21.30;38.20;;;;;;457950;257;1908;-44
2023/01/05 02:03:52;;;;;;;;;;;21.30;38.30;;;;;;465536;252;2313;-45
2023/01/05 02:05:53;;;;;;;;;;;21.30;38.30;;;;;;475729;249;2054;-44
2023/01/05 02:07:55;;;;;;;;;;;21.30;38.40;;;;;;457976;257;1840;-44
2023/01/05 02:09:56;;;;;;;;;;;21.30;38.30;;;;;;465762;252;1858;-44
2023/01/05 02:11:57;;;;;;;;;;;21.30;38.30;;;;;;475622;249;1952;-44
2023/01/05 02:13:59;;;;;;;;;;;21.30;38.30;;;;;;457998;257;1755;-44
2023/01/05 02:16:00;;;;;;;;;;;21.30;38.40;;;;;;465693;252;2177;-44
2023/01/05 02:18:01;;;;;;;;;;;21.30;38.40;;;;;;475622;249;1781;-44
2023/01/05 02:20:03;;;;;;;;;;;21.30;38.30;;;;;;457904;257;1748;-44
2023/01/05 02:22:04;;;;;;;;;;;21.30;38.30;;;;;;465471;252;1938;-44
2023/01/05 02:24:05;;;;;;;;;;;21.20;38.30;;;;;;475695;249;2217;-44
2023/01/05 02:26:07;;;;;;;;;;;21.30;38.40;;;;;;457952;256;1758;-44
2023/01/05 02:28:08;;;;;;;;;;;21.30;38.40;;;;;;465534;252;1751;-44
2023/01/05 02:30:09;;;;;;;;;;;21.30;38.30;;;;;;475599;249;2206;-45
2023/01/05 02:32:11;;;;;;;;;;;21.30;38.30;;;;;;457805;257;1792;-45
2023/01/05 02:34:12;;;;;;;;;;;21.30;38.40;;;;;;465671;252;1739;-44
2023/01/05 02:36:13;;;;;;;;;;;21.20;38.30;;;;;;475481;249;2602;-44
2023/01/05 02:38:15;;;;;;;;;;;21.30;38.40;;;;;;458005;256;1684;-44
2023/01/05 02:40:18;;;;;;;;;;;21.20;38.40;;;;;;465673;252;2227;-44
2023/01/05 02:42:17;;;;;;;;;;;21.20;38.40;;;;;;475482;250;1670;-45
2023/01/05 02:44:19;;;;;;;;;;;21.20;38.40;;;;;;457983;256;1793;-44
2023/01/05 02:46:20;;;;;;;;;;;21.20;38.40;;;;;;465586;252;1927;-44
2023/01/05 02:48:21;;;;;;;;;;;21.20;38.40;;;;;;475665;249;1672;-44
2023/01/05 02:50:23;;;;;;;;;;;21.30;38.50;;;;;;457954;256;1727;-44
2023/01/05 02:52:24;;;;;;;;;;;21.20;38.50;;;;;;465658;252;2053;-44
2023/01/05 02:54:25;;;;;;;;;;;21.20;38.50;;;;;;475645;249;1896;-44
2023/01/05 02:56:26;;;;;;;;;;;21.20;38.50;;;;;;457915;256;2217;-45
2023/01/05 02:58:30;;;;;;;;;;;21.20;38.50;;;;;;465612;252;2152;-44
2023/01/05 03:00:29;;;;;;;;;;;21.20;38.50;;;;;;475451;250;2121;-44
2023/01/05 03:02:30;;;;;;;;;;;21.20;38.50;;;;;;457977;257;1896;-44
2023/01/05 03:04:32;;;;;;;;;;;21.20;38.40;;;;;;465648;252;1828;-45
2023/01/05 03:06:33;;;;;;;;;;;21.20;38.40;;;;;;475610;249;1725;-45
2023/01/05 03:08:34;;;;;;;;;;;21.20;38.50;;;;;;457963;256;2230;-44
2023/01/05 03:15:15;;;;;;;;;;;21.30;38.30;;;;;;457942;255;2186;-44
2023/01/05 03:17:15;;;;;;;;;;;21.30;38.30;;;;;;465549;252;2328;-44
2023/01/05 03:35:44;;;;;;;;;;;21.20;38.50;;;;;;444930;266;2181;-45
2023/01/05 03:37:45;;;;;;;;;;;21.20;38.50;;;;;;451341;263;2426;-44
2023/01/05 03:39:47;;;;;;;;;;;21.20;38.50;;;;;;436537;273;2326;-45
2023/01/05 03:41:48;;;;;;;;;;;21.20;38.50;;;;;;443437;268;1843;-45
2023/01/05 03:43:49;;;;;;;;;;;21.20;38.50;;;;;;452315;262;1986;-44
2023/01/05 03:45:50;;;;;;;;;;;21.20;38.50;;;;;;452217;263;1825;-45
2023/01/05 03:47:52;;;;;;;;;;;21.20;38.50;;;;;;452296;263;2118;-45
2023/01/05 03:49:53;;;;;;;;;;;21.40;38.30;;;;;;452233;263;1973;-44
2023/01/05 03:51:54;;;;;;;;;;;21.60;37.90;;;;;;452310;263;2040;-44
2023/01/05 03:53:56;;;;;;;;;;;21.80;37.50;;;;;;452238;263;2432;-44
2023/01/05 03:55:57;;;;;;;;;;;22.00;37.20;;;;;;452170;263;2226;-45
2023/01/05 03:57:58;;;;;;;;;;;22.10;36.90;;;;;;462962;249;1918;-45
2023/01/05 04:00:00;;;;;;;;;;;22.20;36.70;;;;;;478023;248;1898;-45
2023/01/05 04:02:01;;;;;;;;;;;22.30;36.50;;;;;;457858;258;1987;-44
2023/01/05 04:04:02;;;;;;;;;;;22.40;36.40;;;;;;465724;252;2084;-44
2023/01/05 04:06:04;;;;;;;;;;;22.50;36.30;;;;;;475500;249;2234;-44
2023/01/05 04:08:05;;;;;;;;;;;22.50;36.10;;;;;;457849;257;1974;-44
2023/01/05 04:10:06;;;;;;;;;;;22.60;36.10;;;;;;465625;252;2141;-45
2023/01/05 04:12:08;;;;;;;;;;;22.60;36.00;;;;;;475613;249;1915;-45
2023/01/05 04:14:09;;;;;;;;;;;22.70;36.00;;;;;;457934;256;1792;-45
2023/01/05 04:16:10;;;;;;;;;;;22.70;35.90;;;;;;465494;252;2222;-44
2023/01/05 04:18:12;;;;;;;;;;;22.80;35.80;;;;;;475563;249;1749;-44
2023/01/05 04:20:13;;;;;;;;;;;22.80;35.80;;;;;;457912;256;1854;-45
2023/01/05 04:22:14;;;;;;;;;;;22.80;35.70;;;;;;465665;252;1914;-45
2023/01/05 04:24:16;;;;;;;;;;;22.90;35.60;;;;;;475622;249;2197;-44
2023/01/05 04:26:17;;;;;;;;;;;22.90;35.50;;;;;;457958;256;1917;-45
2023/01/05 04:28:18;;;;;;;;;;;23.00;35.60;;;;;;465730;252;2156;-45
2023/01/05 04:30:20;;;;;;;;;;;23.00;35.60;;;;;;475608;249;2409;-45
2023/01/05 04:32:21;;;;;;;;;;;23.00;35.50;;;;;;457965;256;1937;-44
2023/01/05 04:34:22;;;;;;;;;;;23.00;35.40;;;;;;465546;252;2663;-44
2023/01/05 04:36:24;;;;;;;;;;;23.10;35.40;;;;;;475623;249;2164;-45
2023/01/05 04:38:25;;;;;;;;;;;23.10;35.40;;;;;;457926;257;1732;-45
2023/01/05 04:40:26;;;;;;;;;;;23.10;35.40;;;;;;465557;252;1873;-45
2023/01/05 04:42:28;;;;;;;;;;;23.10;35.30;;;;;;475473;249;1768;-45
2023/01/05 04:44:29;;;;;;;;;;;23.10;35.30;;;;;;458015;256;1759;-45
2023/01/05 04:46:30;;;;;;;;;;;23.20;35.30;;;;;;465510;252;1917;-44
2023/01/05 04:48:32;;;;;;;;;;;23.20;35.20;;;;;;475611;249;1678;-45
2023/01/05 04:50:33;;;;;;;;;;;23.20;35.20;;;;;;457945;256;2084;-45
2023/01/05 04:52:34;;;;;;;;;;;23.20;35.20;;;;;;465463;252;1706;-45
2023/01/05 04:54:36;;;;;;;;;;;23.20;35.10;;;;;;475615;249;1723;-45
2023/01/05 04:56:37;;;;;;;;;;;23.30;35.20;;;;;;457844;256;2164;-45
2023/01/05 04:58:38;;;;;;;;;;;23.30;35.20;;;;;;465640;252;2216;-45
2023/01/05 05:00:40;;;;;;;;;;;23.30;35.10;;;;;;475588;249;2005;-44
2023/01/05 05:02:41;;;;;;;;;;;23.30;35.10;;;;;;457916;256;2175;-45
2023/01/05 05:04:42;;;;;;;;;;;23.30;35.10;;;;;;465612;252;2148;-44
2023/01/05 05:06:44;;;;;;;;;;;23.30;35.10;;;;;;475451;249;1949;-45
2023/01/05 05:08:45;;;;;;;;;;;23.30;35.10;;;;;;457987;255;1896;-44
2023/01/05 05:10:46;;;;;;;;;;;23.30;35.00;;;;;;465600;252;1729;-44
2023/01/05 05:12:47;;;;;;;;;;;23.40;35.10;;;;;;475554;249;2019;-45
2023/01/05 05:14:49;;;;;;;;;;;23.40;35.00;;;;;;458046;256;1891;-44
2023/01/05 05:16:50;;;;;;;;;;;23.40;35.00;;;;;;465427;252;2227;-45
2023/01/05 05:18:52;;;;;;;;;;;23.40;35.00;;;;;;475661;249;1376;-45
2023/01/05 05:20:53;;;;;;;;;;;23.40;35.00;;;;;;457882;256;1800;-44
2023/01/05 05:22:54;;;;;;;;;;;23.40;35.00;;;;;;465482;252;2138;-45
2023/01/05 05:24:56;;;;;;;;;;;23.50;35.00;;;;;;475618;249;1856;-45
2023/01/05 05:26:57;;;;;;;;;;;23.50;35.00;;;;;;457867;256;1843;-44
2023/01/05 05:28:58;;;;;;;;;;;23.50;34.90;;;;;;465534;252;1753;-44
2023/01/05 05:31:00;;;;;;;;;;;23.50;34.90;;;;;;475356;249;2332;-44
2023/01/05 05:33:01;;;;;;;;;;;23.50;34.90;;;;;;457834;257;1851;-45
2023/01/05 05:35:02;;;;;;;;;;;23.50;35.00;;;;;;465480;252;1710;-45
2023/01/05 05:37:04;;;;;;;;;;;23.50;35.00;;;;;;475416;249;2188;-44
2023/01/05 05:39:05;;;;;;;;;;;23.30;35.20;;;;;;457878;257;2157;-44
2023/01/05 05:41:06;;;;;;;;;;;23.10;35.60;;;;;;465402;252;1972;-45
2023/01/05 05:43:07;;;;;;;;;;;22.90;35.90;;;;;;475642;249;1747;-44
2023/01/05 05:45:09;;;;;;;;;;;22.70;36.20;;;;;;458002;256;2334;-45
2023/01/05 05:47:10;;;;;;;;;;;22.60;36.50;;;;;;465517;252;1726;-44
2023/01/05 05:49:11;;;;;;;;;;;22.50;36.70;;;;;;475632;249;1875;-44
2023/01/05 05:51:13;;;;;;;;;;;22.30;36.90;;;;;;457788;257;1727;-44
2023/01/05 05:53:14;;;;;;;;;;;22.30;37.10;;;;;;465525;252;1728;-45
2023/01/05 05:55:15;;;;;;;;;;;22.20;37.10;;;;;;475688;249;1979;-44
2023/01/05 05:57:17;;;;;;;;;;;22.20;37.20;;;;;;457785;257;2237;-44
2023/01/05 05:59:18;;;;;;;;;;;22.10;37.30;;;;;;465551;252;1988;-44
2023/01/05 06:01:19;;;;;;;;;;;22.10;37.40;;;;;;475426;249;2315;-44
2023/01/05 06:03:21;;;;;;;;;;;22.10;37.40;;;;;;457900;257;2265;-44
2023/01/05 06:05:22;;;;;;;;;;;22.00;37.50;;;;;;465620;252;1878;-45
2023/01/05 06:07:23;;;;;;;;;;;22.00;37.60;;;;;;475496;249;1889;-45
2023/01/05 06:09:25;;;;;;;;;;;22.00;37.70;;;;;;457965;256;2091;-45
2023/01/05 06:11:26;;;;;;;;;;;21.90;37.70;;;;;;465419;255;1664;-44
2023/01/05 06:13:27;;;;;;;;;;;21.90;37.70;;;;;;475575;249;1879;-45
2023/01/05 06:15:29;;;;;;;;;;;21.90;37.70;;;;;;457980;256;2147;-45
2023/01/05 06:17:30;;;;;;;;;;;21.90;37.80;;;;;;465453;252;2201;-44
2023/01/05 06:19:31;;;;;;;;;;;21.90;37.80;;;;;;475573;249;1827;-44
2023/01/05 06:21:33;;;;;;;;;;;21.90;37.80;;;;;;457831;256;2405;-45
2023/01/05 06:23:34;;;;;;;;;;;21.80;37.90;;;;;;465609;252;1850;-44
2023/01/05 06:25:35;;;;;;;;;;;21.80;37.90;;;;;;475655;249;2108;-44
2023/01/05 06:27:37;;;;;;;;;;;21.80;37.90;;;;;;457901;256;2367;-44
2023/01/05 06:29:38;;;;;;;;;;;21.70;38.00;;;;;;465584;252;1866;-45
2023/01/05 06:31:39;;;;;;;;;;;21.80;38.00;;;;;;475451;249;1686;-45
2023/01/05 06:33:41;;;;;;;;;;;21.70;38.00;;;;;;457926;256;1697;-44
2023/01/05 06:35:42;;;;;;;;;;;21.70;38.10;;;;;;465633;252;2016;-45
2023/01/05 06:37:43;;;;;;;;;;;21.70;38.10;;;;;;475562;249;2188;-45
2023/01/05 06:39:45;;;;;;;;;;;21.70;38.10;;;;;;457907;257;1647;-45
2023/01/05 06:41:46;;;;;;;;;;;21.70;38.10;;;;;;465513;252;1757;-44
2023/01/05 06:43:47;;;;;;;;;;;21.70;38.20;;;;;;475528;249;1713;-44
2023/01/05 06:45:49;;;;;;;;;;;21.60;38.10;;;;;;457974;256;1765;-45
2023/01/05 06:47:50;;;;;;;;;;;21.60;38.20;;;;;;465514;252;1678;-44
2023/01/05 06:49:51;;;;;;;;;;;21.60;38.20;;;;;;475560;249;2347;-45
2023/01/05 06:51:53;;;;;;;;;;;21.70;38.20;;;;;;457906;257;1976;-44
2023/01/05 06:53:54;;;;;;;;;;;21.60;38.20;;;;;;465609;252;2237;-44
2023/01/05 06:55:55;;;;;;;;;;;21.60;38.30;;;;;;475685;249;1785;-44
2023/01/05 06:57:57;;;;;;;;;;;21.60;38.40;;;;;;457930;256;2200;-44
2023/01/05 06:59:58;;;;;;;;;;;21.60;38.30;;;;;;465533;252;2163;-44
2023/01/05 07:01:59;;;;;;;;;;;21.60;38.40;;;;;;475447;249;1746;-44
2023/01/05 07:04:01;;;;;;;;;;;21.60;38.40;;;;;;457927;257;2578;-45
2023/01/05 07:06:03;;;;;;;;;;;21.60;38.30;;;;;;465485;252;1960;-44
2023/01/05 07:08:04;;;;;;;;;;;21.60;38.30;;;;;;475582;249;2086;-44
2023/01/05 07:10:06;;;;;;;;;;;21.70;38.10;;;;;;457953;256;2197;-44
2023/01/05 07:12:07;;;;;;;;;;;22.00;37.80;;;;;;465460;252;1911;-44
2023/01/05 07:14:08;;;;;;;;;;;22.10;37.50;;;;;;475680;249;2217;-45
2023/01/05 07:16:09;;;;;;;;;;;22.30;37.20;;;;;;457886;256;1777;-45
2023/01/05 07:18:11;;;;;;;;;;;22.40;37.00;;;;;;465548;252;2205;-44
2023/01/05 07:20:12;;;;;;;;;;;22.40;36.90;;;;;;475680;249;1710;-44
2023/01/05 07:22:14;;;;;;;;;;;22.30;37.00;;;;;;457844;256;2141;-44
2023/01/05 07:24:15;;;;;;;;;;;22.20;37.30;;;;;;465650;252;1729;-45
2023/01/05 07:26:16;;;;;;;;;;;22.10;37.50;;;;;;475557;249;1804;-45
2023/01/05 07:28:17;;;;;;;;;;;22.00;37.60;;;;;;457874;257;2207;-44
2023/01/05 07:30:19;;;;;;;;;;;22.00;37.80;;;;;;465558;252;1684;-45
2023/01/05 07:32:20;;;;;;;;;;;21.90;37.80;;;;;;475409;249;1632;-45
2023/01/05 07:34:22;;;;;;;;;;;21.90;37.90;;;;;;457863;256;1747;-44
2023/01/05 07:36:24;;;;;;;;;;;21.80;38.00;;;;;;465361;249;2201;-44
2023/01/05 07:38:25;;;;;;;;;;;21.80;38.10;;;;;;475578;249;1702;-44
2023/01/05 07:40:27;;;;;;;;;;;21.80;38.10;;;;;;457940;256;1748;-44
2023/01/05 07:42:29;;;;;;;;;;;21.80;38.20;;;;;;465379;252;2640;-44
2023/01/05 07:44:29;;;;;;;;;;;21.80;38.20;;;;;;475525;249;2075;-44
2023/01/05 07:46:30;;;;;;;;;;;21.80;38.30;;;;;;457750;256;1868;-44
2023/01/05 07:48:31;;;;;;;;;;;21.70;38.30;;;;;;465596;252;1784;-44
2023/01/05 07:50:33;;;;;;;;;;;21.80;38.40;;;;;;475513;249;2617;-44
2023/01/05 07:52:34;;;;;;;;;;;21.70;38.30;;;;;;457745;257;1779;-45
2023/01/05 07:54:35;;;;;;;;;;;21.70;38.30;;;;;;465575;252;2061;-44
2023/01/05 07:56:37;;;;;;;;;;;21.70;38.40;;;;;;475404;250;2367;-44
2023/01/05 07:58:38;;;;;;;;;;;21.70;38.40;;;;;;457944;256;1785;-44
2023/01/05 08:00:39;;;;;;;;;;;21.70;38.50;;;;;;465435;252;2146;-44
2023/01/05 08:02:41;;;;;;;;;;;21.70;38.50;;;;;;475459;249;1710;-44
2023/01/05 08:04:42;;;;;;;;;;;21.70;38.50;;;;;;457849;256;2105;-44
2023/01/05 08:06:43;;;;;;;;;;;21.70;38.60;;;;;;465462;252;1806;-45
2023/01/05 08:08:45;;;;;;;;;;;21.70;38.60;;;;;;475471;249;1727;-44
2023/01/05 08:10:46;;;;;;;;;;;21.70;38.60;;;;;;457838;257;1755;-44
2023/01/05 08:15:26;;;;;;;;;;;21.70;38.60;;;;;;452292;262;1904;-44
2023/01/05 08:17:28;;;;;;;;;;;21.70;38.70;;;;;;452379;263;2209;-45
2023/01/05 08:19:29;;;;;;;;;;;21.60;38.70;;;;;;452383;263;1990;-44
2023/01/05 08:21:30;;;;;;;;;;;21.70;38.70;;;;;;452480;263;2231;-44
2023/01/05 08:23:32;;;;;;;;;;;21.70;38.70;;;;;;452405;263;1908;-44
2023/01/05 08:25:33;;;;;;;;;;;21.70;38.80;;;;;;452490;263;2080;-45
2023/01/05 08:27:34;;;;;;;;;;;21.60;38.70;;;;;;452378;263;2168;-44
2023/01/05 08:29:36;;;;;;;;;;;21.70;38.80;;;;;;452372;263;1612;-44
2023/01/05 08:31:37;;;;;;;;;;;21.70;38.80;;;;;;452384;263;2015;-44
2023/01/05 08:33:38;;;;;;;;;;;21.60;38.70;;;;;;452340;263;1756;-44
2023/01/05 08:35:39;;;;;;;;;;;21.60;38.80;;;;;;452306;263;1794;-44
2023/01/05 08:37:41;;;;;;;;;;;21.60;38.80;;;;;;452515;263;2213;-44
2023/01/05 08:39:42;;;;;;;;;;;21.60;38.90;;;;;;452374;263;1775;-44
2023/01/05 08:41:43;;;;;;;;;;;21.60;38.90;;;;;;452321;263;2929;-44
2023/01/05 08:43:45;;;;;;;;;;;21.60;38.80;;;;;;452371;263;1809;-45
2023/01/05 08:45:46;;;;;;;;;;;21.60;38.90;;;;;;452385;262;1913;-44
2023/01/05 08:47:47;;;;;;;;;;;21.60;38.90;;;;;;474578;250;1803;-44
2023/01/05 08:49:49;;;;;;;;;;;21.60;38.90;;;;;;457818;257;1735;-44
2023/01/05 08:51:50;;;;;;;;;;;21.60;38.80;;;;;;465568;252;2109;-44
2023/01/05 08:53:52;;;;;;;;;;;21.60;38.80;;;;;;475587;249;1703;-45
2023/01/05 08:55:53;;;;;;;;;;;21.60;38.90;;;;;;457830;257;1841;-44
2023/01/05 08:57:54;;;;;;;;;;;21.60;38.90;;;;;;465430;252;2239;-45
2023/01/05 08:59:55;;;;;;;;;;;21.60;38.90;;;;;;475476;249;1986;-44
2023/01/05 09:01:57;;;;;;;;;;;21.60;39.00;;;;;;457881;255;2004;-44
2023/01/05 09:03:58;;;;;;;;;;;21.60;39.10;;;;;;465457;252;1743;-44
2023/01/05 09:06:02;;;;;;;;;;;21.60;39.00;;;;;;475486;249;1833;-45
2023/01/05 09:08:01;;;;;;;;;;;21.60;39.10;;;;;;457775;259;1835;-44
2023/01/05 09:10:02;;;;;;;;;;;21.60;39.10;;;;;;465463;252;2412;-44
2023/01/05 09:12:03;;;;;;;;;;;21.60;39.10;;;;;;475480;249;1703;-44
2023/01/05 09:14:05;;;;;;;;;;;21.60;39.00;;;;;;457844;257;2030;-45
2023/01/05 09:16:06;;;;;;;;;;;21.60;39.10;;;;;;465544;252;1718;-45
2023/01/05 09:18:07;;;;;;;;;;;21.60;39.10;;;;;;475542;249;2196;-45
2023/01/05 09:20:09;;;;;;;;;;;21.60;39.10;;;;;;457882;256;1702;-44
2023/01/05 09:22:10;;;;;;;;;;;21.60;39.10;;;;;;465511;252;2081;-44
2023/01/05 09:24:12;;;;;;;;;;;21.60;39.10;;;;;;475456;249;1768;-44
2023/01/05 09:26:14;;;;;;;;;;;21.60;39.20;;;;;;457790;257;1761;-44
2023/01/05 09:28:15;;;;;;;;;;;21.50;39.20;;;;;;465544;252;1899;-44
2023/01/05 09:30:17;;;;;;;;;;;21.60;39.20;;;;;;475437;249;2142;-44
2023/01/05 09:32:18;;;;;;;;;;;21.60;39.20;;;;;;457885;257;1850;-44
2023/01/05 09:34:19;;;;;;;;;;;21.60;39.20;;;;;;465416;252;2101;-44
2023/01/05 09:36:20;;;;;;;;;;;21.60;39.20;;;;;;475360;249;1652;-44
2023/01/05 09:38:22;;;;;;;;;;;21.60;39.20;;;;;;457901;256;2209;-45
2023/01/05 09:40:23;;;;;;;;;;;21.50;39.20;;;;;;464045;252;2020;-45
2023/01/05 09:42:26;;;;;;;;;;;21.60;39.30;;;;;;475090;249;1666;-45
2023/01/05 09:44:26;;;;;;;;;;;21.60;39.30;;;;;;457825;257;2174;-44
2023/01/05 09:46:28;;;;;;;;;;;21.60;39.30;;;;;;465358;252;2151;-45
2023/01/05 09:48:29;;;;;;;;;;;21.60;39.30;;;;;;475448;249;1755;-44
2023/01/05 09:50:30;;;;;;;;;;;21.60;39.30;;;;;;457900;256;1974;-44
2023/01/05 09:52:32;;;;;;;;;;;21.60;39.30;;;;;;465365;252;2196;-44
2023/01/05 09:54:33;;;;;;;;;;;21.60;39.40;;;;;;475450;249;1896;-44
2023/01/05 09:56:35;;;;;;;;;;;21.60;39.40;;;;;;457885;257;1737;-44
2023/01/05 09:58:36;;;;;;;;;;;21.60;39.40;;;;;;465493;252;2192;-44
2023/01/05 10:00:37;;;;;;;;;;;21.60;39.40;;;;;;475457;249;1748;-44
2023/01/05 10:02:38;;;;;;;;;;;21.50;39.30;;;;;;457839;256;1898;-45
2023/01/05 10:04:40;;;;;;;;;;;21.50;39.40;;;;;;465452;252;1714;-44
2023/01/05 10:06:41;;;;;;;;;;;21.50;39.50;;;;;;475454;249;1619;-45
2023/01/05 10:08:42;;;;;;;;;;;21.50;39.50;;;;;;457795;257;1875;-44
2023/01/05 10:10:44;;;;;;;;;;;21.50;39.50;;;;;;465453;252;2176;-45
2023/01/05 10:13:04;;;;;;;;;;;21.50;39.50;;;;;;475468;249;1732;-44
2023/01/05 10:15:05;;;;;;;;;;;21.50;39.50;;;;;;457806;259;1921;-44
2023/01/05 10:17:06;;;;;;;;;;;21.50;39.50;;;;;;465444;252;2161;-44
2023/01/05 10:19:07;;;;;;;;;;;21.50;39.50;;;;;;475522;249;2406;-45
2023/01/05 10:21:08;;;;;;;;;;;21.60;39.50;;;;;;457621;257;1727;-44
2023/01/05 10:23:10;;;;;;;;;;;21.60;39.50;;;;;;465399;252;1719;-44
2023/01/05 10:25:11;;;;;;;;;;;21.50;39.50;;;;;;475460;249;1836;-44
2023/01/05 10:27:12;;;;;;;;;;;21.60;39.50;;;;;;457641;257;2141;-44
2023/01/05 10:29:14;;;;;;;;;;;21.60;39.50;;;;;;465549;252;2115;-44
2023/01/05 10:31:15;;;;;;;;;;;21.60;39.50;;;;;;475388;249;1946;-45
2023/01/05 10:33:16;;;;;;;;;;;21.60;39.60;;;;;;457763;257;1971;-45
2023/01/05 10:35:18;;;;;;;;;;;21.50;39.60;;;;;;465538;252;1910;-44
2023/01/05 10:37:19;;;;;;;;;;;21.70;39.50;;;;;;475366;249;1698;-44
2023/01/05 10:39:21;;;;;;;;;;;21.90;39.20;;;;;;457848;257;2638;-45
2023/01/05 10:41:22;;;;;;;;;;;22.10;38.90;;;;;;465483;252;1899;-45
2023/01/05 10:43:23;;;;;;;;;;;22.20;38.50;;;;;;475458;249;1736;-44
2023/01/05 10:45:24;;;;;;;;;;;22.40;38.20;;;;;;457847;257;1917;-44
2023/01/05 10:47:26;;;;;;;;;;;22.50;38.00;;;;;;465533;252;1822;-44
2023/01/05 10:49:27;;;;;;;;;;;22.50;37.90;;;;;;475505;249;1744;-45
2023/01/05 10:51:28;;;;;;;;;;;22.40;38.00;;;;;;457953;257;1990;-45
2023/01/05 10:53:30;;;;;;;;;;;22.30;38.30;;;;;;465523;252;1698;-45
2023/01/05 10:55:31;;;;;;;;;;;22.10;38.50;;;;;;475574;249;1702;-44
2023/01/05 10:57:32;;;;;;;;;;;22.00;38.70;;;;;;458011;256;1934;-44
2023/01/05 10:59:34;;;;;;;;;;;21.90;38.80;;;;;;465537;252;1915;-44
2023/01/05 11:01:35;;;;;;;;;;;22.00;39.00;;;;;;475527;249;2521;-44
2023/01/05 11:03:36;;;;;;;;;;;21.80;39.00;;;;;;457790;256;1767;-44
2023/01/05 11:05:38;;;;;;;;;;;21.90;39.20;;;;;;465545;252;2815;-44
2023/01/05 11:07:39;;;;;;;;;;;21.80;39.10;;;;;;475546;249;1802;-44
2023/01/05 11:09:40;;;;;;;;;;;21.80;39.30;;;;;;457839;256;1737;-45
2023/01/05 11:11:42;;;;;;;;;;;21.80;39.30;;;;;;465486;252;2120;-45
2023/01/05 11:13:43;;;;;;;;;;;21.70;39.40;;;;;;475440;249;1929;-44
2023/01/05 11:15:44;;;;;;;;;;;21.80;39.50;;;;;;457828;256;1913;-44
2023/01/05 11:17:46;;;;;;;;;;;21.70;39.50;;;;;;465391;252;2200;-44
2023/01/05 11:19:47;;;;;;;;;;;21.70;39.50;;;;;;475411;249;1735;-44
2023/01/05 11:21:48;;;;;;;;;;;21.70;39.50;;;;;;457775;256;1990;-45
2023/01/05 11:23:50;;;;;;;;;;;21.70;39.50;;;;;;465446;252;2184;-44
2023/01/05 11:25:51;;;;;;;;;;;21.70;39.50;;;;;;475364;249;1688;-45
2023/01/05 11:27:52;;;;;;;;;;;21.70;39.70;;;;;;457787;257;1762;-44
2023/01/05 11:29:54;;;;;;;;;;;21.70;39.70;;;;;;465535;252;1703;-44
2023/01/05 11:31:55;;;;;;;;;;;21.70;39.70;;;;;;475315;249;1711;-44
2023/01/05 11:33:56;;;;;;;;;;;21.70;39.70;;;;;;457887;256;1875;-44
2023/01/05 11:35:58;;;;;;;;;;;21.70;39.70;;;;;;465379;252;2374;-45
2023/01/05 11:37:59;;;;;;;;;;;21.70;39.70;;;;;;475440;249;2227;-45
2023/01/05 11:40:01;;;;;;;;;;;21.70;39.70;;;;;;457815;257;2069;-44
2023/01/05 11:42:02;;;;;;;;;;;21.60;39.70;;;;;;465520;252;1728;-44
2023/01/05 11:44:03;;;;;;;;;;;21.60;39.80;;;;;;475490;249;1851;-44
2023/01/05 11:46:05;;;;;;;;;;;21.60;39.90;;;;;;457788;257;2016;-44
2023/01/05 11:48:07;;;;;;;;;;;21.60;39.90;;;;;;465543;252;1993;-44
2023/01/05 11:50:07;;;;;;;;;;;21.60;39.90;;;;;;475489;250;2414;-44
2023/01/05 11:52:09;;;;;;;;;;;21.70;39.80;;;;;;457832;257;1983;-45
2023/01/05 11:54:10;;;;;;;;;;;21.90;39.40;;;;;;465530;252;2811;-44
2023/01/05 11:56:11;;;;;;;;;;;22.10;39.00;;;;;;475557;249;1748;-44
2023/01/05 11:58:13;;;;;;;;;;;22.30;38.80;;;;;;457840;256;2194;-45
2023/01/05 12:00:14;;;;;;;;;;;22.50;38.60;;;;;;465650;252;2197;-45
2023/01/05 12:02:15;;;;;;;;;;;22.50;38.30;;;;;;475430;249;1952;-45
2023/01/05 12:04:17;;;;;;;;;;;22.50;38.40;;;;;;457798;255;1736;-44
2023/01/05 12:06:18;;;;;;;;;;;22.40;38.60;;;;;;465369;252;1746;-44
2023/01/05 12:08:19;;;;;;;;;;;22.20;38.70;;;;;;475496;249;1709;-45
2023/01/05 12:10:20;;;;;;;;;;;22.10;39.00;;;;;;457846;256;2150;-45
2023/01/05 12:12:22;;;;;;;;;;;22.10;39.10;;;;;;465425;252;1685;-45
2023/01/05 12:14:23;;;;;;;;;;;22.00;39.20;;;;;;475535;249;1742;-44
2023/01/05 12:16:25;;;;;;;;;;;22.00;39.30;;;;;;457724;256;1742;-44
2023/01/05 12:18:26;;;;;;;;;;;22.00;39.40;;;;;;465462;252;2177;-44
2023/01/05 12:20:27;;;;;;;;;;;22.00;39.50;;;;;;475557;249;1661;-44
2023/01/05 12:22:29;;;;;;;;;;;21.90;39.50;;;;;;457727;256;1719;-44
2023/01/05 12:24:30;;;;;;;;;;;21.90;39.60;;;;;;465427;252;2146;-45
2023/01/05 12:26:31;;;;;;;;;;;21.90;39.60;;;;;;475396;249;2225;-43
2023/01/05 12:28:33;;;;;;;;;;;21.90;39.70;;;;;;457779;257;2210;-45
2023/01/05 12:30:34;;;;;;;;;;;21.90;39.70;;;;;;465353;252;1762;-45
2023/01/05 12:32:35;;;;;;;;;;;21.90;39.70;;;;;;475302;249;2188;-45